createdAt,value
2023-12-21T00:00:57.605Z,97468.88
2023-12-21T00:03:49.442Z,97462.84
2023-12-21T00:06:41.213Z,97462.84
2023-12-21T00:09:33.063Z,97458.78
2023-12-21T00:12:24.784Z,97444.88
2023-12-21T00:15:16.563Z,97439.50
2023-12-21T00:18:08.358Z,97444.78
2023-12-21T00:21:00.114Z,97442.31
2023-12-21T00:23:51.928Z,97449.69
2023-12-21T00:26:43.674Z,97450.19
2023-12-21T00:29:35.465Z,97444.13
2023-12-21T00:32:27.359Z,97444.31
2023-12-21T00:35:19.117Z,97439.63
2023-12-21T00:38:10.860Z,97426.22
2023-12-21T00:41:02.583Z,97433.50
2023-12-21T00:43:54.348Z,97438.84
2023-12-21T00:46:46.077Z,97439.81
2023-12-21T00:49:37.889Z,97450.41
2023-12-21T00:52:29.716Z,97438.66
2023-12-21T00:55:21.517Z,97438.75
2023-12-21T00:58:13.426Z,97423.28
2023-12-21T01:01:05.615Z,97412.78
2023-12-21T01:03:57.581Z,97408.03
2023-12-21T01:06:49.408Z,97417.13
2023-12-21T01:09:41.365Z,97424.91
2023-12-21T01:12:33.355Z,97421.06
2023-12-21T01:15:25.316Z,97424.00
2023-12-21T01:18:17.211Z,97424.06
2023-12-21T01:21:09.046Z,97421.28
2023-12-21T01:24:00.877Z,97419.91
2023-12-21T01:26:52.703Z,97415.59
2023-12-21T01:29:44.501Z,97413.78
2023-12-21T01:32:36.309Z,97416.13
2023-12-21T01:35:28.283Z,97423.38
2023-12-21T01:38:20.091Z,97421.44
2023-12-21T01:41:11.855Z,97415.69
2023-12-21T01:44:03.730Z,97408.50
2023-12-21T01:46:55.857Z,97417.31
2023-12-21T01:49:47.781Z,97427.28
2023-12-21T01:52:41.417Z,97426.50
2023-12-21T01:55:33.412Z,97426.22
2023-12-21T01:58:25.629Z,97420.34
2023-12-21T02:01:17.575Z,97424.34
2023-12-21T02:04:09.738Z,97420.09
2023-12-21T02:07:01.794Z,97392.56
2023-12-21T02:09:53.673Z,97394.63
2023-12-21T02:12:45.747Z,97399.78
2023-12-21T02:15:37.806Z,97406.31
2023-12-21T02:18:30.192Z,97407.09
2023-12-21T02:21:23.344Z,97414.34
2023-12-21T02:24:16.098Z,97412.53
2023-12-21T02:27:07.984Z,97408.88
2023-12-21T02:29:59.782Z,97410.34
2023-12-21T02:32:51.849Z,97400.22
2023-12-21T02:35:43.750Z,97409.81
2023-12-21T02:38:35.560Z,97409.59
2023-12-21T02:41:27.515Z,97399.16
2023-12-21T02:44:19.352Z,97403.78
2023-12-21T02:47:11.108Z,97396.00
2023-12-21T02:50:03.039Z,97390.13
2023-12-21T02:52:54.936Z,97394.69
2023-12-21T02:55:46.808Z,97381.63
2023-12-21T02:58:38.727Z,97382.41
2023-12-21T03:01:30.568Z,97381.31
2023-12-21T03:04:22.357Z,97379.81
2023-12-21T03:07:14.149Z,97378.41
2023-12-21T03:10:06.430Z,97372.16
2023-12-21T03:12:59.817Z,97345.91
2023-12-21T03:15:51.597Z,97346.91
2023-12-21T03:18:43.429Z,97332.13
2023-12-21T03:21:35.272Z,97320.44
2023-12-21T03:24:27.083Z,97307.59
2023-12-21T03:27:18.835Z,97307.94
2023-12-21T03:30:11.096Z,97311.16
2023-12-21T03:33:03.066Z,97322.03
2023-12-21T03:35:54.936Z,97319.16
2023-12-21T03:38:46.691Z,97320.34
2023-12-21T03:41:38.486Z,97304.25
2023-12-21T03:44:30.282Z,97283.13
2023-12-21T03:47:22.009Z,97270.22
2023-12-21T03:50:13.934Z,97258.25
2023-12-21T03:53:07.523Z,97265.09
2023-12-21T03:55:59.350Z,97257.47
2023-12-21T03:58:53.601Z,97260.38
2023-12-21T04:01:45.464Z,97253.63
2023-12-21T04:04:37.375Z,97232.66
2023-12-21T04:07:29.323Z,97236.19
2023-12-21T04:10:21.220Z,97231.22
2023-12-21T04:13:13.014Z,97224.91
2023-12-21T04:16:06.887Z,97212.31
2023-12-21T04:18:58.776Z,97216.63
2023-12-21T04:21:50.629Z,97212.16
2023-12-21T04:24:42.433Z,97209.28
2023-12-21T04:27:34.278Z,97211.75
2023-12-21T04:30:26.093Z,97212.00
2023-12-21T04:33:19.253Z,97204.25
2023-12-21T04:36:11.036Z,97203.09
2023-12-21T04:39:02.949Z,97199.19
2023-12-21T04:41:55.202Z,97207.81
2023-12-21T04:44:47.025Z,97215.50
2023-12-21T04:47:38.839Z,97209.28
2023-12-21T04:50:30.616Z,97217.28
2023-12-21T04:53:22.458Z,97216.53
2023-12-21T04:56:14.195Z,97222.88
2023-12-21T04:59:05.978Z,97222.06
2023-12-21T05:01:57.921Z,97232.81
2023-12-21T05:04:49.781Z,97234.53
2023-12-21T05:07:41.629Z,97232.88
2023-12-21T05:10:33.450Z,97235.97
2023-12-21T05:13:25.280Z,97220.69
2023-12-21T05:16:17.198Z,97221.41
2023-12-21T05:19:09.382Z,97215.06
2023-12-21T05:22:01.301Z,97216.22
2023-12-21T05:24:53.165Z,97208.34
2023-12-21T05:27:44.999Z,97212.50
2023-12-21T05:30:36.857Z,97218.78
2023-12-21T05:33:28.699Z,97199.22
2023-12-21T05:36:21.478Z,97198.94
2023-12-21T05:39:18.097Z,97192.81
2023-12-21T05:42:10.684Z,97185.88
2023-12-21T05:45:02.515Z,97179.56
2023-12-21T05:47:54.403Z,97170.75
2023-12-21T05:50:46.194Z,97172.13
2023-12-21T05:53:38.014Z,97181.09
2023-12-21T05:56:31.047Z,97172.97
2023-12-21T05:59:23.030Z,97160.75
2023-12-21T06:02:14.993Z,97157.13
2023-12-21T06:05:07.256Z,97164.19
2023-12-21T06:07:59.227Z,97154.81
2023-12-21T06:10:51.043Z,97158.78
2023-12-21T06:13:42.931Z,97160.84
2023-12-21T06:16:34.857Z,97162.84
2023-12-21T06:19:26.798Z,97150.22
2023-12-21T06:22:19.827Z,97142.72
2023-12-21T06:25:11.923Z,97142.41
2023-12-21T06:28:04.009Z,97130.53
2023-12-21T06:30:55.897Z,97144.38
2023-12-21T06:33:47.736Z,97162.91
2023-12-21T06:36:39.538Z,97147.28
2023-12-21T06:39:31.497Z,97153.13
2023-12-21T06:42:23.521Z,97157.69
2023-12-21T06:45:15.480Z,97157.19
2023-12-21T06:48:07.894Z,97143.41
2023-12-21T06:50:59.753Z,97134.81
2023-12-21T06:53:51.527Z,97150.91
2023-12-21T06:56:43.284Z,97145.41
2023-12-21T06:59:35.079Z,97145.91
2023-12-21T07:02:26.850Z,97138.03
2023-12-21T07:05:18.655Z,97142.84
2023-12-21T07:08:10.454Z,97138.91
2023-12-21T07:11:02.237Z,97132.94
2023-12-21T07:13:54.054Z,97141.31
2023-12-21T07:16:45.853Z,97141.19
2023-12-21T07:19:37.695Z,97143.50
2023-12-21T07:22:29.534Z,97134.25
2023-12-21T07:25:21.366Z,97141.56
2023-12-21T07:28:13.198Z,97134.81
2023-12-21T07:31:04.941Z,97134.50
2023-12-21T07:33:56.792Z,97132.63
2023-12-21T07:36:48.541Z,97121.84
2023-12-21T07:39:40.304Z,97122.97
2023-12-21T07:42:32.095Z,97119.91
2023-12-21T07:45:23.842Z,97116.13
2023-12-21T07:48:15.625Z,97090.94
2023-12-21T07:51:10.085Z,97117.44
2023-12-21T07:54:01.885Z,97115.75
2023-12-21T07:56:53.671Z,97133.81
2023-12-21T07:59:45.786Z,97137.25
2023-12-21T08:02:37.748Z,97138.97
2023-12-21T08:05:29.498Z,97133.19
2023-12-21T08:08:21.295Z,97128.13
2023-12-21T08:11:13.210Z,97127.19
2023-12-21T08:14:05.054Z,97122.75
2023-12-21T08:16:56.806Z,97107.91
2023-12-21T08:19:48.570Z,97113.00
2023-12-21T08:22:40.426Z,97102.13
2023-12-21T08:25:32.215Z,97080.50
2023-12-21T08:28:24.031Z,97099.28
2023-12-21T08:31:29.191Z,97095.44
2023-12-21T08:34:21.116Z,97111.75
2023-12-21T08:37:12.932Z,97124.50
2023-12-21T08:40:05.483Z,97126.31
2023-12-21T08:42:57.350Z,97115.72
2023-12-21T08:45:49.237Z,97122.66
2023-12-21T08:48:41.034Z,97112.38
2023-12-21T08:51:32.779Z,97119.41
2023-12-21T08:54:24.515Z,97113.16
2023-12-21T08:57:16.271Z,97114.59
2023-12-21T09:00:10.200Z,97108.81
2023-12-21T09:03:02.172Z,97109.66
2023-12-21T09:05:53.966Z,97122.97
2023-12-21T09:08:45.702Z,97126.84
2023-12-21T09:11:37.492Z,97119.56
2023-12-21T09:14:29.648Z,97120.63
2023-12-21T09:17:21.519Z,97119.94
2023-12-21T09:20:13.489Z,97128.19
2023-12-21T09:23:05.396Z,97114.97
2023-12-21T09:25:57.292Z,97109.22
2023-12-21T09:28:49.242Z,97110.09
2023-12-21T09:31:41.176Z,97101.06
2023-12-21T09:34:33.183Z,97095.78
2023-12-21T09:37:25.271Z,97114.44
2023-12-21T09:40:17.682Z,97116.78
2023-12-21T09:43:15.942Z,97116.84
2023-12-21T09:46:10.218Z,97099.78
2023-12-21T09:49:02.698Z,97121.06
2023-12-21T09:51:56.130Z,97119.53
2023-12-21T09:54:51.134Z,97118.78
2023-12-21T09:57:43.270Z,97113.16
2023-12-21T10:00:35.040Z,97111.81
2023-12-21T10:03:26.853Z,97118.13
2023-12-21T10:06:19.097Z,97131.47
2023-12-21T10:09:11.453Z,97126.16
2023-12-21T10:12:03.415Z,97134.00
2023-12-21T10:15:01.520Z,97126.34
2023-12-21T10:17:53.306Z,97118.47
2023-12-21T10:20:45.126Z,97120.25
2023-12-21T10:23:38.789Z,97106.00
2023-12-21T10:26:30.606Z,97080.44
2023-12-21T10:29:22.373Z,97072.69
2023-12-21T10:32:17.460Z,97067.97
2023-12-21T10:35:09.298Z,97075.09
2023-12-21T10:38:01.636Z,97056.22
2023-12-21T10:40:53.621Z,97070.16
2023-12-21T10:43:45.644Z,97069.66
2023-12-21T10:46:39.249Z,97045.44
2023-12-21T10:49:32.848Z,97041.81
2023-12-21T10:52:26.212Z,97044.19
2023-12-21T10:55:19.157Z,97034.66
2023-12-21T10:58:12.137Z,97010.31
2023-12-21T11:01:06.484Z,97010.25
2023-12-21T11:03:59.682Z,97014.88
2023-12-21T11:06:53.132Z,97019.06
2023-12-21T11:09:46.361Z,97018.94
2023-12-21T11:12:38.231Z,97014.47
2023-12-21T11:15:31.404Z,97024.56
2023-12-21T11:18:25.578Z,97015.81
2023-12-21T11:21:19.665Z,97002.66
2023-12-21T11:24:21.608Z,96962.69
2023-12-21T11:27:13.498Z,96941.22
2023-12-21T11:30:13.193Z,96934.03
2023-12-21T11:33:10.165Z,96940.94
2023-12-21T11:36:02.094Z,96945.16
2023-12-21T11:38:56.474Z,96937.72
2023-12-21T11:41:58.552Z,96931.34
2023-12-21T11:44:51.829Z,96950.31
2023-12-21T11:47:47.406Z,96948.47
2023-12-21T11:50:39.239Z,96929.16
2023-12-21T11:53:39.189Z,96954.88
2023-12-21T11:56:37.673Z,96959.94
2023-12-21T11:59:30.003Z,96946.09
2023-12-21T12:02:21.990Z,96923.31
2023-12-21T12:05:23.257Z,96931.56
2023-12-21T12:08:23.615Z,96946.59
2023-12-21T12:11:15.485Z,96938.88
2023-12-21T12:14:09.968Z,96916.34
2023-12-21T12:17:02.471Z,96897.03
2023-12-21T12:19:56.176Z,96876.44
2023-12-21T12:22:51.163Z,96886.69
2023-12-21T12:25:49.402Z,96896.78
2023-12-21T12:28:42.346Z,96891.50
2023-12-21T12:31:34.363Z,96897.47
2023-12-21T12:34:26.766Z,96902.78
2023-12-21T12:37:21.755Z,96899.63
2023-12-21T12:40:13.568Z,96891.34
2023-12-21T12:43:05.862Z,96880.00
2023-12-21T12:45:58.249Z,96873.19
2023-12-21T12:48:50.995Z,96888.72
2023-12-21T12:51:42.987Z,96883.44
2023-12-21T12:54:35.009Z,96885.59
2023-12-21T12:57:27.413Z,96860.34
2023-12-21T13:00:20.384Z,96847.19
2023-12-21T13:03:12.611Z,96833.72
2023-12-21T13:06:08.544Z,96830.84
2023-12-21T13:09:07.224Z,96821.34
2023-12-21T13:11:59.258Z,96813.16
2023-12-21T13:14:51.043Z,96820.56
2023-12-21T13:17:42.871Z,96809.44
2023-12-21T13:20:34.733Z,96780.81
2023-12-21T13:23:26.480Z,96783.97
2023-12-21T13:26:18.310Z,96770.72
2023-12-21T13:29:10.194Z,96782.13
2023-12-21T13:32:02.645Z,96785.28
2023-12-21T13:34:54.526Z,96777.63
2023-12-21T13:37:46.625Z,96760.66
2023-12-21T13:40:38.701Z,96758.56
2023-12-21T13:43:30.511Z,96767.81
2023-12-21T13:46:22.394Z,96774.97
2023-12-21T13:49:14.451Z,96773.88
2023-12-21T13:52:06.494Z,96773.56
2023-12-21T13:54:58.270Z,96779.94
2023-12-21T13:57:50.183Z,96764.31
2023-12-21T14:00:42.144Z,96761.44
2023-12-21T14:03:34.031Z,96761.72
2023-12-21T14:06:25.949Z,96752.44
2023-12-21T14:09:17.783Z,96764.63
2023-12-21T14:12:09.556Z,96763.28
2023-12-21T14:15:01.387Z,96765.13
2023-12-21T14:17:53.924Z,96749.28
2023-12-21T14:20:45.719Z,96734.72
2023-12-21T14:23:37.484Z,96740.03
2023-12-21T14:26:29.247Z,96729.44
2023-12-21T14:29:21.119Z,96727.28
2023-12-21T14:32:12.972Z,96722.81
2023-12-21T14:35:05.337Z,96726.53
2023-12-21T14:37:57.237Z,96740.56
2023-12-21T14:40:49.210Z,96723.09
2023-12-21T14:43:41.348Z,96698.97
2023-12-21T14:46:33.686Z,96702.41
2023-12-21T14:49:25.571Z,96705.06
2023-12-21T14:52:17.394Z,96698.44
2023-12-21T14:55:09.243Z,96697.13
2023-12-21T14:58:01.011Z,96687.56
2023-12-21T15:00:52.864Z,96689.94
2023-12-21T15:03:44.656Z,96678.81
2023-12-21T15:06:36.573Z,96656.56
2023-12-21T15:09:28.370Z,96668.75
2023-12-21T15:12:20.253Z,96661.59
2023-12-21T15:15:12.194Z,96670.09
2023-12-21T15:18:05.300Z,96664.25
2023-12-21T15:20:57.167Z,96653.91
2023-12-21T15:23:48.936Z,96653.38
2023-12-21T15:26:40.735Z,96652.56
2023-12-21T15:29:32.603Z,96648.63
2023-12-21T15:32:24.462Z,96639.34
2023-12-21T15:35:16.849Z,96626.63
2023-12-21T15:38:08.621Z,96625.03
2023-12-21T15:41:00.597Z,96634.03
2023-12-21T15:43:52.413Z,96638.03
2023-12-21T15:46:44.191Z,96635.63
2023-12-21T15:49:36.079Z,96642.78
2023-12-21T15:52:27.924Z,96632.72
2023-12-21T15:55:19.759Z,96635.63
2023-12-21T15:58:11.730Z,96630.06
2023-12-21T16:01:03.729Z,96629.00
2023-12-21T16:03:55.576Z,96625.00
2023-12-21T16:06:47.344Z,96615.72
2023-12-21T16:09:39.120Z,96618.09
2023-12-21T16:12:30.896Z,96605.38
2023-12-21T16:15:23.656Z,96607.78
2023-12-21T16:18:16.637Z,96601.13
2023-12-21T16:21:08.525Z,96602.47
2023-12-21T16:24:00.384Z,96590.31
2023-12-21T16:26:52.727Z,96592.94
2023-12-21T16:29:44.611Z,96594.78
2023-12-21T16:32:36.413Z,96597.97
2023-12-21T16:35:28.244Z,96584.44
2023-12-21T16:38:20.019Z,96579.91
2023-12-21T16:41:11.771Z,96583.09
2023-12-21T16:44:03.585Z,96578.09
2023-12-21T16:46:55.660Z,96574.69
2023-12-21T16:49:47.561Z,96587.41
2023-12-21T16:52:39.380Z,96583.13
2023-12-21T16:55:31.157Z,96584.19
2023-12-21T16:58:24.518Z,96600.91
2023-12-21T17:01:16.772Z,96591.06
2023-12-21T17:04:08.657Z,96582.81
2023-12-21T17:07:00.536Z,96611.72
2023-12-21T17:09:52.296Z,96592.66
2023-12-21T17:12:44.063Z,96608.78
2023-12-21T17:15:35.856Z,96608.56
2023-12-21T17:18:27.732Z,96597.16
2023-12-21T17:21:19.619Z,96600.06
2023-12-21T17:24:12.335Z,96614.91
2023-12-21T17:27:04.266Z,96608.00
2023-12-21T17:29:56.035Z,96604.81
2023-12-21T17:32:47.829Z,96595.50
2023-12-21T17:35:39.601Z,96591.25
2023-12-21T17:38:31.558Z,96601.59
2023-12-21T17:41:23.949Z,96602.13
2023-12-21T17:44:16.901Z,96595.47
2023-12-21T17:47:08.731Z,96596.34
2023-12-21T17:50:02.152Z,96573.72
2023-12-21T17:52:53.938Z,96580.09
2023-12-21T17:55:45.735Z,96585.41
2023-12-21T17:58:37.614Z,96567.97
2023-12-21T18:01:29.425Z,96575.53
2023-12-21T18:04:21.326Z,96570.16
2023-12-21T18:07:13.715Z,96557.91
2023-12-21T18:10:06.825Z,96563.38
2023-12-21T18:12:58.685Z,96585.19
2023-12-21T18:15:50.618Z,96559.25
2023-12-21T18:18:42.549Z,96576.31
2023-12-21T18:21:34.550Z,96567.50
2023-12-21T18:24:26.359Z,96580.72
2023-12-21T18:27:18.220Z,96590.00
2023-12-21T18:30:10.221Z,96561.06
2023-12-21T18:33:02.040Z,96568.22
2023-12-21T18:35:53.826Z,96552.56
2023-12-21T18:38:46.307Z,96561.50
2023-12-21T18:41:38.048Z,96549.31
2023-12-21T18:44:29.784Z,96561.97
2023-12-21T18:47:21.515Z,96544.63
2023-12-21T18:50:13.469Z,96550.97
2023-12-21T18:53:05.284Z,96567.06
2023-12-21T18:55:57.087Z,96562.81
2023-12-21T18:58:49.105Z,96556.97
2023-12-21T19:01:40.945Z,96563.81
2023-12-21T19:04:32.823Z,96556.47
2023-12-21T19:07:24.649Z,96555.94
2023-12-21T19:10:16.533Z,96553.72
2023-12-21T19:13:08.665Z,96546.19
2023-12-21T19:16:02.478Z,96531.22
2023-12-21T19:18:54.306Z,96539.59
2023-12-21T19:21:47.153Z,96537.84
2023-12-21T19:24:38.941Z,96538.81
2023-12-21T19:27:30.760Z,96581.03
2023-12-21T19:30:22.494Z,96589.50
2023-12-21T19:33:14.383Z,96553.72
2023-12-21T19:36:06.759Z,96524.38
2023-12-21T19:38:58.651Z,96526.97
2023-12-21T19:41:50.497Z,96499.91
2023-12-21T19:44:42.298Z,96492.16
2023-12-21T19:47:34.136Z,96512.91
2023-12-21T19:50:25.922Z,96524.88
2023-12-21T19:53:17.727Z,96524.88
2023-12-21T19:56:09.585Z,96517.03
2023-12-21T19:59:01.646Z,96537.31
2023-12-21T20:01:53.448Z,96527.16
2023-12-21T20:04:45.271Z,96523.56
2023-12-21T20:07:37.110Z,96509.16
2023-12-21T20:10:28.981Z,96508.38
2023-12-21T20:13:20.814Z,96511.34
2023-12-21T20:16:12.901Z,96498.28
2023-12-21T20:19:05.010Z,96507.97
2023-12-21T20:21:56.823Z,96523.41
2023-12-21T20:24:48.595Z,96543.28
2023-12-21T20:27:40.454Z,96537.88
2023-12-21T20:30:32.194Z,96534.00
2023-12-21T20:33:23.961Z,96519.44
2023-12-21T20:36:15.732Z,96537.25
2023-12-21T20:39:07.522Z,96547.25
2023-12-21T20:41:59.289Z,96558.84
2023-12-21T20:44:51.061Z,96557.53
2023-12-21T20:47:46.093Z,96563.53
2023-12-21T20:50:38.245Z,96571.44
2023-12-21T20:53:30.024Z,96568.63
2023-12-21T20:56:21.773Z,96575.91
2023-12-21T20:59:13.607Z,96567.50
2023-12-21T21:02:05.395Z,96578.25
2023-12-21T21:04:57.308Z,96584.94
2023-12-21T21:07:49.379Z,96574.75
2023-12-21T21:10:41.331Z,96576.44
2023-12-21T21:13:33.193Z,96568.69
2023-12-21T21:16:25.008Z,96553.91
2023-12-21T21:19:16.911Z,96563.00
2023-12-21T21:22:08.748Z,96575.59
2023-12-21T21:25:00.552Z,96577.31
2023-12-21T21:27:52.333Z,96578.81
2023-12-21T21:30:56.694Z,96557.00
2023-12-21T21:33:52.347Z,96575.97
2023-12-21T21:36:44.166Z,96576.63
2023-12-21T21:39:36.653Z,96589.94
2023-12-21T21:42:28.411Z,96586.63
2023-12-21T21:45:20.253Z,96589.34
2023-12-21T21:48:12.284Z,96592.75
2023-12-21T21:51:06.073Z,96609.41
2023-12-21T21:53:57.861Z,96608.16
2023-12-21T21:56:49.654Z,96633.03
2023-12-21T21:59:41.521Z,96632.81
2023-12-21T22:02:34.542Z,96617.91
2023-12-21T22:05:26.481Z,96634.25
2023-12-21T22:08:18.343Z,96651.25
2023-12-21T22:11:10.167Z,96667.38
2023-12-21T22:14:03.043Z,96655.16
2023-12-21T22:16:54.836Z,96650.38
2023-12-21T22:19:46.713Z,96628.66
2023-12-21T22:22:38.531Z,96634.53
2023-12-21T22:25:30.493Z,96628.44
2023-12-21T22:28:22.331Z,96646.66
2023-12-21T22:31:14.877Z,96644.91
2023-12-21T22:34:06.693Z,96636.41
2023-12-21T22:36:58.492Z,96613.53
2023-12-21T22:39:50.288Z,96590.31
2023-12-21T22:42:42.063Z,96602.13
2023-12-21T22:45:33.958Z,96605.31
2023-12-21T22:48:26.507Z,96601.19
2023-12-21T22:51:18.371Z,96577.47
2023-12-21T22:54:10.127Z,96604.78
2023-12-21T22:57:03.342Z,96636.66
2023-12-21T22:59:55.179Z,96626.22
2023-12-21T23:02:46.959Z,96615.22
2023-12-21T23:05:38.776Z,96644.38
2023-12-21T23:08:30.527Z,96614.81
2023-12-21T23:11:22.428Z,96621.19
2023-12-21T23:14:14.224Z,96633.63
2023-12-21T23:17:05.954Z,96642.59
2023-12-21T23:19:57.920Z,96652.97
2023-12-21T23:22:50.050Z,96675.25
2023-12-21T23:25:42.202Z,96685.63
2023-12-21T23:28:34.024Z,96679.47
2023-12-21T23:31:29.376Z,96687.72
2023-12-21T23:34:21.178Z,96685.47
2023-12-21T23:37:13.636Z,96698.94
2023-12-21T23:40:10.321Z,96703.09
2023-12-21T23:43:02.670Z,96679.56
2023-12-21T23:45:54.390Z,96687.50
2023-12-21T23:48:46.185Z,96682.09
2023-12-21T23:51:38.479Z,96693.31
2023-12-21T23:54:30.286Z,96690.91
2023-12-21T23:57:22.076Z,96679.00
